Time;durP1;ratioP1;P1;durP2;ratioP2;P2;SDS_P1;SDS_P2;PMS_P1;PMS_P2;Temp;Humidity;BMP_temperature;BMP_pressure;BME280_temperature;BME280_humidity;BME280_pressure;Samples;Min_cycle;Max_cycle;Signal;HPM_P1;HPM_P2
2022/09/06 00:00:37;;;;;;;;;;;;;;;24.16;62.71;99882.16;7314649;19;129664;-40
2022/09/06 00:03:03;;;;;;;;;;;;;;;24.16;62.48;99874.28;7314921;19;129069;-40
2022/09/06 00:05:29;;;;;;;;;;;;;;;24.17;62.80;99873.31;7314467;19;129026;-39
2022/09/06 00:07:57;;;;;;;;;;;;;;;24.16;62.47;99881.34;7312410;19;130442;-39
2022/09/06 00:10:22;;;;;;;;;;;;;;;24.14;62.09;99873.63;7316542;19;128968;-40
2022/09/06 00:12:47;;;;;;;;;;;;;;;24.16;62.43;99874.28;7315235;19;129222;-37
2022/09/06 00:15:13;;;;;;;;;;;;;;;24.16;62.16;99866.41;7316184;19;129236;-40
2022/09/06 00:17:38;;;;;;;;;;;;;;;24.18;61.95;99880.22;7313357;19;130724;-36
2022/09/06 00:20:04;;;;;;;;;;;;;;;24.18;62.25;99861.00;7314941;19;129053;-38
2022/09/06 00:22:29;;;;;;;;;;;;;;;24.17;62.09;99865.44;7313840;19;129167;-38
2022/09/06 00:24:55;;;;;;;;;;;;;;;24.18;62.62;99864.44;7315271;19;129957;-38
2022/09/06 00:27:20;;;;;;;;;;;;;;;24.16;62.80;99866.41;7314937;19;129199;-40
2022/09/06 00:29:45;;;;;;;;;;;;;;;24.16;62.06;99866.41;7314326;19;129943;-38
2022/09/06 00:32:10;;;;;;;;;;;;;;;24.17;62.22;99857.56;7314199;19;129689;-36
2022/09/06 00:34:35;;;;;;;;;;;;;;;24.16;62.70;99858.50;7313846;19;129049;-39
2022/09/06 00:37:01;;;;;;;;;;;;;;;24.17;62.85;99857.56;7312642;19;130401;-37
2022/09/06 00:39:26;;;;;;;;;;;;;;;24.18;62.41;99858.38;7314611;19;129689;-37
2022/09/06 00:41:51;;;;;;;;;;;;;;;24.18;62.68;99853.94;7312428;19;129248;-40
2022/09/06 00:44:17;;;;;;;;;;;;;;;24.19;62.18;99855.59;7313707;19;129272;-37
2022/09/06 00:46:44;;;;;;;;;;;;;;;24.18;62.85;99859.19;7313077;19;129481;-37
2022/09/06 00:49:15;;;;;;;;;;;;;;;24.18;62.77;99856.56;7312962;19;128798;-37
2022/09/06 00:51:41;;;;;;;;;;;;;;;24.19;62.00;99849.53;7314329;19;128963;-37
2022/09/06 00:54:07;;;;;;;;;;;;;;;24.16;62.55;99845.38;7313483;19;129215;-38
2022/09/06 00:56:34;;;;;;;;;;;;;;;24.19;62.53;99855.59;7314168;19;129772;-37
2022/09/06 00:58:59;;;;;;;;;;;;;;;24.19;62.43;99858.25;7311469;19;129518;-39
2022/09/06 01:01:25;;;;;;;;;;;;;;;24.19;61.92;99860.88;7314132;19;129208;-38
2022/09/06 01:03:50;;;;;;;;;;;;;;;24.19;62.58;99855.59;7312093;19;129341;-39
2022/09/06 01:06:19;;;;;;;;;;;;;;;24.18;62.12;99853.94;7314095;19;129097;-41
2022/09/06 01:08:57;;;;;;;;;;;;;;;24.19;62.48;99852.97;7310836;19;129571;-39
2022/09/06 01:11:30;;;;;;;;;;;;;;;24.19;62.41;99852.97;7313497;19;128990;-40
2022/09/06 01:14:01;;;;;;;;;;;;;;;24.20;62.71;99852.00;7312926;19;130241;-38
2022/09/06 01:16:26;;;;;;;;;;;;;;;24.19;62.47;99855.59;7313772;19;129939;-38
2022/09/06 01:18:57;;;;;;;;;;;;;;;24.19;62.73;99852.16;7311904;19;129204;-39
2022/09/06 01:21:37;;;;;;;;;;;;;;;24.12;62.15;99833.53;7312306;19;129009;-41
2022/09/06 01:24:18;;;;;;;;;;;;;;;24.20;62.69;99840.66;7313223;19;129363;-39
2022/09/06 01:27:03;;;;;;;;;;;;;;;24.19;62.81;99846.91;7312235;19;129528;-37
2022/09/06 01:29:35;;;;;;;;;;;;;;;24.18;62.72;99848.69;7312755;19;129030;-40
2022/09/06 01:32:09;;;;;;;;;;;;;;;24.18;62.85;99846.06;7313393;19;130024;-36
2022/09/06 01:34:37;;;;;;;;;;;;;;;24.19;62.71;99854.78;7312816;19;130033;-38
2022/09/06 01:37:07;;;;;;;;;;;;;;;24.18;62.30;99848.69;7311308;19;129842;-37
2022/09/06 01:39:33;;;;;;;;;;;;;;;24.18;62.18;99851.31;7312788;19;129319;-37
2022/09/06 01:42:18;;;;;;;;;;;;;;;24.18;62.13;99848.69;7311770;19;129135;-38
2022/09/06 01:44:52;;;;;;;;;;;;;;;24.18;62.35;99853.94;7312127;19;129417;-39
2022/09/06 01:47:26;;;;;;;;;;;;;;;24.19;62.08;99849.53;7312278;19;129659;-39
2022/09/06 01:49:52;;;;;;;;;;;;;;;24.19;61.90;99834.59;7311986;19;129203;-37
2022/09/06 01:52:23;;;;;;;;;;;;;;;24.19;62.09;99837.22;7312446;19;129273;-37
2022/09/06 01:55:06;;;;;;;;;;;;;;;24.19;62.66;99839.00;7310967;19;129615;-38
2022/09/06 01:57:47;;;;;;;;;;;;;;;24.18;62.06;99843.44;7310748;19;129603;-38
2022/09/06 02:00:19;;;;;;;;;;;;;;;24.19;62.08;99836.38;7318150;19;129641;-38
2022/09/06 02:03:04;;;;;;;;;;;;;;;24.10;62.02;99829.38;7318685;19;129430;-39
2022/09/06 02:05:35;;;;;;;;;;;;;;;24.18;62.30;99842.63;7318860;19;130721;-38
2022/09/06 02:08:04;;;;;;;;;;;;;;;24.19;62.20;99845.09;7319399;19;130094;-38
2022/09/06 02:10:37;;;;;;;;;;;;;;;24.18;62.11;99848.69;7318062;19;129198;-37
2022/09/06 02:13:04;;;;;;;;;;;;;;;24.19;62.21;99849.53;7318724;19;129218;-38
2022/09/06 02:15:36;;;;;;;;;;;;;;;24.19;62.54;99852.16;7318853;19;129372;-38
2022/09/06 02:18:04;;;;;;;;;;;;;;;24.19;62.19;99860.03;7316373;19;130046;-37
2022/09/06 02:20:32;;;;;;;;;;;;;;;24.18;62.58;99848.69;7318778;19;128970;-37
2022/09/06 02:23:00;;;;;;;;;;;;;;;24.10;62.04;99835.47;7318578;19;129237;-37
2022/09/06 02:25:32;;;;;;;;;;;;;;;24.18;62.76;99850.50;7318260;19;129188;-37
2022/09/06 02:27:58;;;;;;;;;;;;;;;24.19;62.45;99854.78;7316679;19;129982;-37
2022/09/06 02:30:23;;;;;;;;;;;;;;;24.19;62.23;99855.59;7320207;19;129572;-38
2022/09/06 02:32:53;;;;;;;;;;;;;;;24.18;62.33;99859.19;7316538;19;129403;-39
2022/09/06 02:35:19;;;;;;;;;;;;;;;24.18;61.91;99859.19;7318866;19;129442;-38
2022/09/06 02:37:44;;;;;;;;;;;;;;;24.19;62.01;99858.25;7316253;19;129161;-37
2022/09/06 02:40:10;;;;;;;;;;;;;;;24.20;62.58;99856.41;7318479;19;129237;-37
2022/09/06 02:42:35;;;;;;;;;;;;;;;24.09;62.39;99836.47;7317544;19;129611;-39
2022/09/06 02:45:01;;;;;;;;;;;;;;;24.19;62.53;99855.59;7318659;19;130236;-36
2022/09/06 02:47:26;;;;;;;;;;;;;;;24.19;61.94;99854.78;7316442;19;129986;-36
2022/09/06 02:49:51;;;;;;;;;;;;;;;24.19;62.07;99854.78;7318641;19;129025;-38
2022/09/06 02:52:16;;;;;;;;;;;;;;;24.18;62.01;99851.31;7317726;19;129523;-38
2022/09/06 02:54:41;;;;;;;;;;;;;;;24.18;61.79;99853.13;7317608;19;129393;-39
2022/09/06 02:57:07;;;;;;;;;;;;;;;24.18;62.58;99859.19;7316254;19;130996;-38
2022/09/06 02:59:32;;;;;;;;;;;;;;;24.19;62.63;99855.59;7318173;19;129257;-37
2022/09/06 03:01:57;;;;;;;;;;;;;;;24.19;62.55;99849.53;7316588;19;129134;-40
2022/09/06 03:04:23;;;;;;;;;;;;;;;24.19;62.32;99842.47;7316013;19;129605;-38
2022/09/06 03:06:48;;;;;;;;;;;;;;;24.19;62.24;99839.84;7317804;19;130517;-38
2022/09/06 03:09:13;;;;;;;;;;;;;;;24.19;61.98;99839.84;7314723;19;128935;-39
2022/09/06 03:11:39;;;;;;;;;;;;;;;24.18;62.33;99843.44;7314978;19;128793;-36
2022/09/06 03:14:04;;;;;;;;;;;;;;;24.19;61.87;99839.84;7316261;19;129044;-38
2022/09/06 03:16:29;;;;;;;;;;;;;;;24.20;61.75;99835.41;7317664;19;129192;-37
2022/09/06 03:18:54;;;;;;;;;;;;;;;24.16;61.97;99834.88;7317127;19;129371;-37
2022/09/06 03:21:20;;;;;;;;;;;;;;;24.19;62.32;99837.22;7318456;19;128818;-39
2022/09/06 03:23:45;;;;;;;;;;;;;;;24.18;62.31;99832.91;7316487;19;130482;-39
2022/09/06 03:26:10;;;;;;;;;;;;;;;24.19;62.21;99825.88;7317086;19;130175;-38
2022/09/06 03:28:35;;;;;;;;;;;;;;;24.19;62.04;99825.88;7315738;19;129451;-38
2022/09/06 03:31:01;;;;;;;;;;;;;;;24.19;61.99;99829.34;7315985;19;129529;-38
2022/09/06 03:33:26;;;;;;;;;;;;;;;24.19;62.31;99834.59;7316453;19;130259;-39
2022/09/06 03:35:53;;;;;;;;;;;;;;;24.19;61.92;99834.59;7316194;19;129515;-38
2022/09/06 03:38:18;;;;;;;;;;;;;;;24.19;61.96;99831.97;7314651;19;129789;-37
2022/09/06 03:40:45;;;;;;;;;;;;;;;24.19;62.49;99829.34;7315888;19;129621;-37
2022/09/06 03:43:10;;;;;;;;;;;;;;;24.09;61.84;99812.81;7315741;19;129116;-41
2022/09/06 03:45:35;;;;;;;;;;;;;;;24.18;62.58;99827.66;7316084;19;130045;-37
2022/09/06 03:48:00;;;;;;;;;;;;;;;24.18;61.92;99827.66;7314640;19;128854;-40
2022/09/06 03:50:26;;;;;;;;;;;;;;;24.19;62.60;99828.50;7316015;19;129339;-37
2022/09/06 03:52:51;;;;;;;;;;;;;;;24.10;62.36;99816.25;7315180;19;131305;-37
2022/09/06 03:55:16;;;;;;;;;;;;;;;24.19;62.15;99836.38;7315749;19;129512;-38
2022/09/06 03:57:41;;;;;;;;;;;;;;;24.17;61.83;99820.78;7313573;19;130751;-39
2022/09/06 04:00:07;;;;;;;;;;;;;;;24.18;62.54;99822.41;7315710;19;128896;-37
2022/09/06 04:02:32;;;;;;;;;;;;;;;24.18;62.61;99821.59;7315032;19;130785;-38
2022/09/06 04:04:58;;;;;;;;;;;;;;;24.17;62.50;99820.78;7315272;19;130006;-38
2022/09/06 04:07:23;;;;;;;;;;;;;;;24.18;62.12;99806.66;7314078;19;129635;-37
2022/09/06 04:09:48;;;;;;;;;;;;;;;24.19;61.89;99810.13;7314435;19;130274;-36
2022/09/06 04:12:14;;;;;;;;;;;;;;;24.19;62.53;99818.81;7314602;19;129394;-38
2022/09/06 04:14:39;;;;;;;;;;;;;;;24.18;62.43;99817.16;7314203;19;130139;-38
2022/09/06 04:17:04;;;;;;;;;;;;;;;24.19;62.00;99816.19;7314364;19;129335;-39
2022/09/06 04:19:30;;;;;;;;;;;;;;;24.18;62.06;99817.16;7313815;19;129425;-38
2022/09/06 04:21:55;;;;;;;;;;;;;;;24.17;62.27;99812.88;7314499;19;129033;-37
2022/09/06 04:24:20;;;;;;;;;;;;;;;24.17;62.55;99826.03;7313405;19;129325;-38
2022/09/06 04:26:45;;;;;;;;;;;;;;;24.18;62.26;99819.78;7314872;19;130067;-38
2022/09/06 04:29:11;;;;;;;;;;;;;;;24.17;62.15;99809.44;7314899;19;129376;-38
2022/09/06 04:31:36;;;;;;;;;;;;;;;24.18;62.44;99804.03;7313477;19;129482;-39
2022/09/06 04:34:02;;;;;;;;;;;;;;;24.11;62.44;99792.47;7314313;19;130354;-38
2022/09/06 04:36:28;;;;;;;;;;;;;;;24.17;61.87;99805.00;7314981;19;129155;-37
2022/09/06 04:38:54;;;;;;;;;;;;;;;24.08;62.14;99782.25;7311647;19;129059;-37
2022/09/06 04:41:19;;;;;;;;;;;;;;;24.18;62.03;99793.50;7313544;19;129105;-39
2022/09/06 04:43:45;;;;;;;;;;;;;;;24.18;62.25;99790.09;7313600;19;129646;-37
2022/09/06 04:46:21;;;;;;;;;;;;;;;24.18;62.18;99790.09;7313690;19;129324;-40
2022/09/06 04:48:47;;;;;;;;;;;;;;;24.19;62.45;99784.69;7311880;19;129133;-37
2022/09/06 04:51:12;;;;;;;;;;;;;;;24.18;62.12;99790.09;7312697;19;130323;-38
2022/09/06 04:53:37;;;;;;;;;;;;;;;24.19;62.36;99789.09;7313152;19;132393;-37
2022/09/06 04:56:03;;;;;;;;;;;;;;;24.17;62.50;99789.25;7312951;19;129657;-40
2022/09/06 04:58:28;;;;;;;;;;;;;;;24.17;62.35;99780.53;7310825;19;129256;-36
2022/09/06 05:00:53;;;;;;;;;;;;;;;24.18;61.73;99780.38;7313505;19;129339;-39
2022/09/06 05:03:18;;;;;;;;;;;;;;;24.19;62.57;99776.78;7313867;19;129950;-39
2022/09/06 05:05:44;;;;;;;;;;;;;;;24.19;62.32;99782.03;7314443;19;129040;-37
2022/09/06 05:08:09;;;;;;;;;;;;;;;24.18;62.05;99785.63;7311723;19;131027;-38
2022/09/06 05:10:34;;;;;;;;;;;;;;;24.18;62.30;99785.63;7314442;19;131161;-37
2022/09/06 05:12:59;;;;;;;;;;;;;;;24.18;62.14;99785.63;7312497;19;129972;-39
2022/09/06 05:15:25;;;;;;;;;;;;;;;24.17;62.20;99784.00;7313759;19;128970;-37
2022/09/06 05:17:50;;;;;;;;;;;;;;;24.17;62.35;99789.25;7310956;19;129367;-38
2022/09/06 05:20:16;;;;;;;;;;;;;;;24.12;62.14;99781.00;7313770;19;129233;-39
2022/09/06 05:22:41;;;;;;;;;;;;;;;24.19;62.08;99795.19;7311832;19;129249;-37
2022/09/06 05:25:07;;;;;;;;;;;;;;;24.09;62.03;99776.06;7314723;19;129023;-38
2022/09/06 05:27:32;;;;;;;;;;;;;;;24.18;61.79;99795.34;7312305;19;128918;-37
2022/09/06 05:29:57;;;;;;;;;;;;;;;24.18;61.69;99790.88;7314304;19;129277;-37
2022/09/06 05:32:22;;;;;;;;;;;;;;;24.18;62.33;99796.13;7314788;19;129437;-38
2022/09/06 05:34:48;;;;;;;;;;;;;;;24.18;62.38;99793.50;7322174;19;130114;-39
2022/09/06 05:37:13;;;;;;;;;;;;;;;24.17;61.63;99789.25;7327207;19;128874;-36
2022/09/06 05:39:38;;;;;;;;;;;;;;;24.18;62.38;99787.47;7328400;19;129351;-38
2022/09/06 05:42:05;;;;;;;;;;;;;;;24.17;62.31;99778.75;7327746;19;130283;-37
2022/09/06 05:44:34;;;;;;;;;;;;;;;24.18;61.58;99774.31;7327786;19;129080;-38
2022/09/06 05:47:00;;;;;;;;;;;;;;;24.18;61.54;99775.13;7326645;19;128974;-37
2022/09/06 05:49:25;;;;;;;;;;;;;;;24.17;62.45;99773.50;7326574;19;129664;-38
2022/09/06 05:51:51;;;;;;;;;;;;;;;24.20;61.59;99778.44;7326185;19;129261;-38
2022/09/06 05:54:16;;;;;;;;;;;;;;;24.16;62.05;99774.44;7327744;19;129245;-36
2022/09/06 05:56:41;;;;;;;;;;;;;;;24.18;62.33;99775.13;7326648;19;128748;-36
2022/09/06 05:59:06;;;;;;;;;;;;;;;24.18;62.10;99784.81;7326761;19;129376;-39
2022/09/06 06:01:32;;;;;;;;;;;;;;;24.18;62.09;99780.38;7326495;19;129186;-37
2022/09/06 06:03:59;;;;;;;;;;;;;;;24.18;61.86;99788.25;7326632;19;128940;-37
2022/09/06 06:06:25;;;;;;;;;;;;;;;24.18;61.56;99785.63;7326815;19;129277;-37
2022/09/06 06:08:51;;;;;;;;;;;;;;;24.17;61.71;99786.63;7324295;19;129279;-36
2022/09/06 06:11:16;;;;;;;;;;;;;;;24.17;62.40;99788.41;7326645;19;129099;-36
2022/09/06 06:13:42;;;;;;;;;;;;;;;24.18;62.10;99790.88;7326079;19;128932;-37
2022/09/06 06:16:08;;;;;;;;;;;;;;;24.18;62.09;99790.88;7327241;19;129065;-38
2022/09/06 06:18:33;;;;;;;;;;;;;;;24.16;62.46;99787.56;7323083;19;130232;-37
2022/09/06 06:21:25;;;;;;;;;;;;;;;24.08;62.14;99774.38;7327446;19;129696;-37
2022/09/06 06:23:52;;;;;;;;;;;;;;;24.17;62.04;99784.00;7325560;19;128847;-37
2022/09/06 06:26:18;;;;;;;;;;;;;;;24.17;61.79;99784.00;7326401;19;129075;-40
2022/09/06 06:28:43;;;;;;;;;;;;;;;24.17;62.44;99778.75;7323579;19;130300;-37
2022/09/06 06:31:09;;;;;;;;;;;;;;;24.16;62.13;99777.06;7326365;19;129280;-39
2022/09/06 06:33:37;;;;;;;;;;;;;;;24.16;62.47;99787.56;7325712;19;128796;-37
2022/09/06 06:36:02;;;;;;;;;;;;;;;24.16;61.58;99792.84;7326837;19;128861;-37
2022/09/06 06:38:46;;;;;;;;;;;;;;;24.17;61.96;99789.25;7323574;19;129447;-38
2022/09/06 06:41:12;;;;;;;;;;;;;;;24.10;62.18;99771.59;7326338;19;129537;-39
2022/09/06 06:43:38;;;;;;;;;;;;;;;24.16;61.88;99777.06;7325642;19;129167;-39
2022/09/06 06:46:03;;;;;;;;;;;;;;;24.15;61.73;99778.06;7320085;19;129491;-37
2022/09/06 06:48:28;;;;;;;;;;;;;;;24.15;62.47;99782.47;7316115;19;129193;-37
2022/09/06 06:50:54;;;;;;;;;;;;;;;24.15;61.74;99778.06;7319452;19;129597;-39
2022/09/06 06:53:19;;;;;;;;;;;;;;;24.17;62.25;99784.00;7317854;19;128933;-39
2022/09/06 06:55:45;;;;;;;;;;;;;;;24.14;62.26;99778.22;7319597;19;128978;-40
2022/09/06 06:58:11;;;;;;;;;;;;;;;24.06;62.59;99762.38;7317268;19;129845;-37
2022/09/06 07:00:36;;;;;;;;;;;;;;;24.17;61.81;99778.75;7318745;19;130505;-40
2022/09/06 07:03:02;;;;;;;;;;;;;;;24.15;62.18;99778.06;7317086;19;129016;-38
2022/09/06 07:05:27;;;;;;;;;;;;;;;24.16;61.85;99781.53;7319839;19;129379;-39
2022/09/06 07:07:52;;;;;;;;;;;;;;;24.16;61.95;99777.06;7317369;19;129501;-40
2022/09/06 07:10:17;;;;;;;;;;;;;;;24.15;62.07;99783.31;7319580;19;130463;-38
2022/09/06 07:12:43;;;;;;;;;;;;;;;24.15;62.44;99788.56;7319621;19;129441;-38
2022/09/06 07:15:08;;;;;;;;;;;;;;;24.15;62.22;99779.84;7319090;19;129181;-37
2022/09/06 07:17:34;;;;;;;;;;;;;;;24.17;62.61;99784.00;7314463;19;129271;-37
2022/09/06 07:19:59;;;;;;;;;;;;;;;24.16;62.04;99787.56;7318559;19;129477;-38
2022/09/06 07:22:25;;;;;;;;;;;;;;;24.16;62.21;99787.56;7318291;19;129425;-40
2022/09/06 07:24:50;;;;;;;;;;;;;;;24.19;62.73;99789.09;7319147;19;128926;-36
2022/09/06 07:27:15;;;;;;;;;;;;;;;24.15;62.06;99785.09;7316719;19;130222;-39
2022/09/06 07:29:41;;;;;;;;;;;;;;;24.16;62.00;99787.56;7316882;19;129699;-37
2022/09/06 07:32:06;;;;;;;;;;;;;;;24.16;62.55;99787.56;7318338;19;129078;-39
2022/09/06 07:34:32;;;;;;;;;;;;;;;24.15;62.65;99788.56;7317901;19;129109;-40
2022/09/06 07:36:57;;;;;;;;;;;;;;;24.16;62.62;99789.41;7315825;19;129266;-38
2022/09/06 07:39:23;;;;;;;;;;;;;;;24.16;62.56;99790.22;7316371;19;129147;-37
2022/09/06 07:41:48;;;;;;;;;;;;;;;24.15;62.60;99791.19;7316445;19;129365;-38
2022/09/06 07:44:14;;;;;;;;;;;;;;;24.09;61.73;99769.97;7316746;19;128894;-40
2022/09/06 07:46:39;;;;;;;;;;;;;;;24.17;62.53;99784.00;7317113;19;130337;-38
2022/09/06 07:49:05;;;;;;;;;;;;;;;24.15;62.40;99791.19;7316060;19;128898;-39
2022/09/06 07:51:30;;;;;;;;;;;;;;;24.16;61.89;99792.84;7316901;19;129078;-39
2022/09/06 07:53:56;;;;;;;;;;;;;;;24.17;62.31;99794.50;7316828;19;130517;-40
2022/09/06 07:56:22;;;;;;;;;;;;;;;24.06;62.56;99778.97;7314736;19;129676;-36
2022/09/06 07:58:48;;;;;;;;;;;;;;;24.18;62.09;99795.34;7314481;19;129142;-40
2022/09/06 08:01:28;;;;;;;;;;;;;;;24.17;61.83;99789.25;7316230;19;128600;-38
2022/09/06 08:03:54;;;;;;;;;;;;;;;24.18;62.38;99790.88;7317185;19;130667;-39
2022/09/06 08:06:21;;;;;;;;;;;;;;;24.17;62.16;99794.50;7317292;19;130291;-38
2022/09/06 08:08:46;;;;;;;;;;;;;;;24.17;61.96;99789.25;7312753;19;129415;-41
2022/09/06 08:11:11;;;;;;;;;;;;;;;24.17;61.91;99784.00;7316593;19;128837;-39
2022/09/06 08:13:37;;;;;;;;;;;;;;;24.16;62.55;99790.22;7315480;19;128794;-40
2022/09/06 08:16:04;;;;;;;;;;;;;;;24.16;61.80;99790.22;7316592;19;130095;-39
2022/09/06 08:18:29;;;;;;;;;;;;;;;24.17;62.05;99791.03;7313012;19;129195;-38
2022/09/06 08:20:55;;;;;;;;;;;;;;;24.17;61.88;99798.91;7316547;19;129015;-39
2022/09/06 08:23:20;;;;;;;;;;;;;;;24.18;62.29;99796.13;7313958;19;128922;-37
2022/09/06 08:25:56;;;;;;;;;;;;;;;24.17;62.24;99799.75;7315770;19;130249;-37
2022/09/06 08:28:21;;;;;;;;;;;;;;;24.18;62.02;99800.59;7313162;19;129119;-40
2022/09/06 08:30:46;;;;;;;;;;;;;;;24.19;62.19;99808.31;7316596;19;128945;-36
2022/09/06 08:33:11;;;;;;;;;;;;;;;24.16;62.71;99808.59;7313831;19;128764;-38
2022/09/06 08:35:37;;;;;;;;;;;;;;;24.17;61.94;99812.88;7315914;19;129505;-40
2022/09/06 08:38:04;;;;;;;;;;;;;;;24.08;62.45;99795.41;7313781;19;129305;-37
2022/09/06 08:40:30;;;;;;;;;;;;;;;24.17;62.43;99807.63;7315061;19;129052;-39
2022/09/06 08:42:55;;;;;;;;;;;;;;;24.18;62.69;99795.34;7316058;19;129560;-36
2022/09/06 08:45:22;;;;;;;;;;;;;;;24.15;61.98;99800.88;7314928;19;129499;-38
2022/09/06 08:47:49;;;;;;;;;;;;;;;24.16;62.10;99792.84;7313587;19;129722;-38
2022/09/06 08:50:15;;;;;;;;;;;;;;;24.15;62.81;99788.56;7316495;19;128785;-38
2022/09/06 08:52:43;;;;;;;;;;;;;;;24.12;62.14;99781.00;7316349;19;128953;-39
2022/09/06 08:55:29;;;;;;;;;;;;;;;24.12;62.25;99775.75;7314143;19;130127;-38
2022/09/06 08:58:02;;;;;;;;;;;;;;;24.07;63.04;99756.97;7314430;19;129376;-36
2022/09/06 09:00:27;;;;;;;;;;;;;;;24.14;62.04;99779.06;7315158;19;128756;-37
2022/09/06 09:02:56;;;;;;;;;;;;;;;24.10;62.22;99772.44;7313889;19;129237;-39
2022/09/06 09:05:28;;;;;;;;;;;;;;;24.12;62.36;99781.00;7314686;19;129203;-40
2022/09/06 09:07:56;;;;;;;;;;;;;;;24.16;62.72;99773.63;7312215;19;130201;-39
2022/09/06 09:10:39;;;;;;;;;;;;;;;23.95;62.31;99763.41;7313605;19;129939;-38
2022/09/06 09:13:06;;;;;;;;;;;;;;;23.98;63.17;99767.56;7314233;19;129270;-39
2022/09/06 09:15:34;;;;;;;;;;;;;;;24.03;63.54;99767.94;7313966;19;129279;-37
2022/09/06 09:18:00;;;;;;;;;;;;;;;24.05;62.91;99764.19;7312749;19;129864;-38
2022/09/06 09:20:25;;;;;;;;;;;;;;;24.00;62.48;99745.41;7314541;19;129054;-39
2022/09/06 09:22:50;;;;;;;;;;;;;;;24.08;63.23;99763.06;7313159;19;128967;-38
2022/09/06 09:25:21;;;;;;;;;;;;;;;24.09;62.79;99755.03;7313648;19;129077;-38
2022/09/06 09:27:48;;;;;;;;;;;;;;;24.09;62.46;99752.41;7312538;19;130056;-37
2022/09/06 09:30:14;;;;;;;;;;;;;;;24.13;63.62;99751.09;7314495;19;129033;-36
2022/09/06 09:32:40;;;;;;;;;;;;;;;24.04;62.73;99746.78;7312885;19;128793;-38
2022/09/06 09:35:11;;;;;;;;;;;;;;;24.06;62.74;99741.38;7313579;19;129447;-38
2022/09/06 09:37:37;;;;;;;;;;;;;;;24.08;62.46;99750.75;7312164;19;129981;-38
2022/09/06 09:40:02;;;;;;;;;;;;;;;24.07;63.21;99750.91;7314460;19;129348;-37
2022/09/06 09:42:29;;;;;;;;;;;;;;;24.08;63.08;99753.38;7314425;19;129577;-39
2022/09/06 09:44:55;;;;;;;;;;;;;;;24.14;62.81;99747.53;7313311;19;129203;-38
2022/09/06 09:47:23;;;;;;;;;;;;;;;24.13;62.84;99745.06;7312253;19;130590;-37
2022/09/06 09:49:48;;;;;;;;;;;;;;;24.07;63.21;99735.97;7313416;19;129209;-38
2022/09/06 09:52:13;;;;;;;;;;;;;;;24.10;62.27;99730.41;7313016;19;129020;-39
2022/09/06 09:54:43;;;;;;;;;;;;;;;24.12;62.35;99722.38;7313581;19;129522;-37
2022/09/06 09:57:09;;;;;;;;;;;;;;;24.10;62.69;99725.16;7312224;19;130222;-37
2022/09/06 09:59:35;;;;;;;;;;;;;;;24.04;63.15;99715.25;7310895;19;128988;-37
2022/09/06 10:02:00;;;;;;;;;;;;;;;24.14;62.37;99721.25;7312681;19;128958;-38
2022/09/06 10:04:35;;;;;;;;;;;;;;;24.12;62.39;99717.94;7313193;19;128961;-36
2022/09/06 10:07:11;;;;;;;;;;;;;;;24.17;62.57;99723.56;7311385;19;129466;-37
2022/09/06 10:09:39;;;;;;;;;;;;;;;24.16;62.46;99716.66;7313277;19;128871;-36
2022/09/06 10:12:04;;;;;;;;;;;;;;;24.11;62.59;99703.16;7312148;19;128883;-38
2022/09/06 10:14:43;;;;;;;;;;;;;;;24.13;62.48;99710.91;7312921;19;129392;-39
2022/09/06 10:17:17;;;;;;;;;;;;;;;24.04;63.89;99717.88;7309738;19;129390;-37
2022/09/06 10:19:44;;;;;;;;;;;;;;;24.05;63.40;99716.91;7310848;19;128830;-38
2022/09/06 10:22:09;;;;;;;;;;;;;;;24.01;63.75;99715.56;7318777;19;128867;-38
2022/09/06 10:24:53;;;;;;;;;;;;;;;24.03;63.75;99716.22;7319781;19;130024;-38
2022/09/06 10:27:23;;;;;;;;;;;;;;;23.98;62.97;99713.22;7318427;19;129077;-37
2022/09/06 10:29:57;;;;;;;;;;;;;;;24.02;63.13;99709.34;7320249;19;129156;-39
2022/09/06 10:32:31;;;;;;;;;;;;;;;24.10;62.92;99709.38;7317125;19;130199;-38
2022/09/06 10:34:56;;;;;;;;;;;;;;;23.96;63.61;99707.28;7317306;19;129451;-38
2022/09/06 10:37:35;;;;;;;;;;;;;;;24.02;63.29;99711.97;7318514;19;129514;-40
2022/09/06 10:40:08;;;;;;;;;;;;;;;24.08;63.91;99711.34;7319731;19;128971;-39
2022/09/06 10:42:33;;;;;;;;;;;;;;;24.08;63.27;99711.34;7319496;19;130262;-39
2022/09/06 10:44:59;;;;;;;;;;;;;;;24.11;62.52;99716.28;7318888;19;129118;-38
2022/09/06 10:47:30;;;;;;;;;;;;;;;24.14;62.79;99700.25;7318372;19;131003;-37
2022/09/06 10:49:57;;;;;;;;;;;;;;;24.16;62.22;99710.59;7318424;19;128831;-38
2022/09/06 10:52:42;;;;;;;;;;;;;;;24.13;62.65;99698.56;7317082;19;131377;-37
2022/09/06 10:55:10;;;;;;;;;;;;;;;24.15;63.10;99704.50;7317546;19;130301;-38
2022/09/06 10:57:38;;;;;;;;;;;;;;;24.15;63.05;99696.63;7317128;19;130184;-38
2022/09/06 11:00:11;;;;;;;;;;;;;;;24.11;63.17;99694.47;7318660;19;129305;-37
2022/09/06 11:02:39;;;;;;;;;;;;;;;24.05;62.93;99695.06;7318396;19;129031;-37
2022/09/06 11:05:12;;;;;;;;;;;;;;;24.02;63.26;99698.81;7318532;19;129402;-37
2022/09/06 11:07:45;;;;;;;;;;;;;;;23.88;63.34;99696.69;7316733;19;129431;-37
2022/09/06 11:10:22;;;;;;;;;;;;;;;23.97;63.93;99697.59;7319139;19;128824;-37
2022/09/06 11:13:08;;;;;;;;;;;;;;;24.04;62.98;99694.25;7316062;19;129211;-39
2022/09/06 11:15:43;;;;;;;;;;;;;;;24.06;63.12;99684.44;7316982;19;129513;-38
2022/09/06 11:18:35;;;;;;;;;;;;;;;24.05;63.75;99688.00;7317298;19;129829;-37
2022/09/06 11:21:03;;;;;;;;;;;;;;;23.88;64.30;99678.31;7315954;19;129494;-37
2022/09/06 11:23:41;;;;;;;;;;;;;;;23.93;63.77;99680.50;7316700;19;129192;-37
2022/09/06 11:26:23;;;;;;;;;;;;;;;23.46;63.89;99661.56;7317350;19;129121;-39
2022/09/06 11:28:52;;;;;;;;;;;;;;;23.36;61.76;99654.72;7315931;19;129213;-37
2022/09/06 11:31:37;;;;;;;;;;;;;;;23.57;64.48;99674.44;7315540;19;129060;-37
2022/09/06 11:34:10;;;;;;;;;;;;;;;23.55;63.42;99675.59;7315975;19;129907;-39
2022/09/06 11:36:44;;;;;;;;;;;;;;;23.74;63.67;99670.16;7316272;19;129560;-39
2022/09/06 11:39:10;;;;;;;;;;;;;;;23.86;63.63;99669.78;7316825;19;132570;-36
2022/09/06 11:41:37;;;;;;;;;;;;;;;23.83;64.27;99664.81;7316948;19;129106;-37
2022/09/06 11:44:03;;;;;;;;;;;;;;;23.80;63.78;99665.13;7317433;19;128878;-38
2022/09/06 11:46:34;;;;;;;;;;;;;;;23.83;64.30;99658.75;7318967;19;129229;-41
2022/09/06 11:49:02;;;;;;;;;;;;;;;23.60;64.35;99655.75;7315853;19;129469;-37
2022/09/06 11:51:41;;;;;;;;;;;;;;;23.58;64.10;99660.38;7315619;19;130974;-37
2022/09/06 11:54:21;;;;;;;;;;;;;;;23.80;64.64;99657.25;7317511;19;129348;-37
2022/09/06 11:56:50;;;;;;;;;;;;;;;23.84;64.44;99648.09;7315308;19;130232;-37
2022/09/06 11:59:15;;;;;;;;;;;;;;;23.88;64.49;99646.00;7315283;19;130372;-38
2022/09/06 12:01:58;;;;;;;;;;;;;;;23.80;65.10;99659.88;7316272;19;129410;-36
2022/09/06 12:04:23;;;;;;;;;;;;;;;23.57;63.54;99648.19;7316936;19;129078;-38
2022/09/06 12:07:07;;;;;;;;;;;;;;;23.52;62.26;99649.66;7316295;19;129047;-37
2022/09/06 12:09:41;;;;;;;;;;;;;;;23.63;62.64;99645.00;7316353;19;129457;-37
2022/09/06 12:12:07;;;;;;;;;;;;;;;23.68;64.85;99650.63;7314409;19;129019;-37
2022/09/06 12:14:39;;;;;;;;;;;;;;;23.54;64.75;99639.81;7316421;19;129109;-38
2022/09/06 12:17:05;;;;;;;;;;;;;;;23.64;62.87;99625.63;7314832;19;129442;-37
2022/09/06 12:19:38;;;;;;;;;;;;;;;23.59;65.07;99625.25;7313797;19;129439;-36
2022/09/06 12:22:23;;;;;;;;;;;;;;;23.64;64.32;99617.75;7316183;19;129382;-38
2022/09/06 12:24:48;;;;;;;;;;;;;;;23.74;64.63;99618.50;7316327;19;129191;-36
2022/09/06 12:27:17;;;;;;;;;;;;;;;23.84;64.46;99616.59;7315757;19;129449;-39
2022/09/06 12:29:48;;;;;;;;;;;;;;;23.95;64.19;99608.47;7315590;19;129661;-38
2022/09/06 12:32:18;;;;;;;;;;;;;;;23.77;63.94;99599.81;7316137;19;128843;-38
2022/09/06 12:34:44;;;;;;;;;;;;;;;23.84;63.69;99613.97;7314220;19;130234;-40
2022/09/06 12:37:09;;;;;;;;;;;;;;;23.68;64.35;99594.66;7315432;19;128992;-38
2022/09/06 12:39:35;;;;;;;;;;;;;;;23.84;64.31;99605.25;7313603;19;129228;-38